Time;durP1;ratioP1;P1;durP2;ratioP2;P2;SDS_P1;SDS_P2;PMS_P1;PMS_P2;Temp;Humidity;BMP_temperature;BMP_pressure;BME280_temperature;BME280_humidity;BME280_pressure;Samples;Min_cycle;Max_cycle;Signal;HPM_P1;HPM_P2
2022/01/22 00:01:15;;;;;;;11.20;5.70;;;7.10;99.90;;;;;;5053777;28;20643;-88
2022/01/22 00:03:40;;;;;;;20.08;4.70;;;7.20;99.90;;;;;;5053991;28;20236;-82
2022/01/22 00:06:06;;;;;;;8.73;4.68;;;7.20;99.90;;;;;;5053364;28;20162;-91
2022/01/22 00:08:32;;;;;;;16.90;5.40;;;7.10;99.90;;;;;;5053377;28;20168;-89
2022/01/22 00:10:57;;;;;;;11.57;5.32;;;7.10;99.90;;;;;;5068931;28;20179;-84
2022/01/22 00:16:07;;;;;;;8.98;5.10;;;7.00;99.90;;;;;;5053665;28;20167;-92
2022/01/22 00:18:33;;;;;;;8.93;5.45;;;6.90;99.90;;;;;;5053513;28;20172;-85
2022/01/22 00:20:59;;;;;;;7.15;4.97;;;7.00;99.90;;;;;;5053620;28;20191;-83
2022/01/22 00:23:26;;;;;;;7.15;5.28;;;7.00;99.90;;;;;;5053227;28;20248;-88
2022/01/22 00:25:54;;;;;;;18.13;5.53;;;7.20;99.90;;;;;;5053460;28;20175;-81
2022/01/22 00:28:20;;;;;;;10.82;5.95;;;7.30;99.90;;;;;;5053659;28;20164;-83
2022/01/22 00:30:46;;;;;;;9.10;6.00;;;7.30;99.90;;;;;;5053384;28;20183;-89
2022/01/22 00:33:12;;;;;;;10.50;5.43;;;7.10;99.90;;;;;;5054037;28;20206;-87
2022/01/22 00:35:37;;;;;;;9.38;5.57;;;7.10;99.90;;;;;;5053190;28;20239;-77
2022/01/22 00:38:03;;;;;;;8.55;5.60;;;7.00;99.90;;;;;;5054404;28;20171;-85
2022/01/22 00:40:29;;;;;;;10.43;5.38;;;7.00;99.90;;;;;;5057330;28;20167;-90
2022/01/22 00:42:55;;;;;;;12.88;5.90;;;7.00;99.90;;;;;;5056687;28;20628;-88
2022/01/22 00:45:20;;;;;;;9.30;6.25;;;6.90;99.90;;;;;;5057149;28;20163;-89
2022/01/22 00:47:48;;;;;;;11.63;5.25;;;6.90;99.90;;;;;;5056574;28;20167;-88
2022/01/22 00:50:15;;;;;;;6.80;4.70;;;6.90;99.90;;;;;;5056901;28;20179;-89
2022/01/22 00:52:42;;;;;;;9.18;5.82;;;7.00;99.90;;;;;;5056695;28;20199;-80
2022/01/22 00:55:10;;;;;;;10.25;5.68;;;7.00;99.90;;;;;;5057057;28;20159;-78
2022/01/22 00:57:35;;;;;;;8.57;5.97;;;7.10;99.90;;;;;;5056550;28;20175;-77
2022/01/22 01:00:03;;;;;;;9.32;5.22;;;7.10;99.90;;;;;;5057043;28;20171;-88
2022/01/22 01:02:29;;;;;;;7.68;5.82;;;7.20;99.90;;;;;;5056587;28;20175;-87
2022/01/22 01:04:55;;;;;;;10.10;6.32;;;7.10;99.90;;;;;;5057038;28;20166;-85
2022/01/22 01:07:20;;;;;;;6.75;6.07;;;7.10;99.90;;;;;;5056853;28;20159;-85
2022/01/22 01:09:46;;;;;;;9.40;6.07;;;7.00;99.90;;;;;;5056889;28;20163;-83
2022/01/22 01:12:12;;;;;;;7.88;5.72;;;7.10;99.90;;;;;;5055768;28;20193;-85
2022/01/22 01:14:46;;;;;;;10.15;6.05;;;7.20;99.90;;;;;;5056837;28;20254;-88
2022/01/22 01:17:34;;;;;;;15.70;7.20;;;7.20;99.90;;;;;;5056659;28;20174;-83
2022/01/22 01:33:58;;;;;;;15.52;6.60;;;7.30;99.90;;;;;;5036344;28;20694;-80
2022/01/22 01:36:24;;;;;;;9.00;7.00;;;7.10;99.90;;;;;;5071459;28;20174;-84
2022/01/22 01:38:54;;;;;;;10.43;7.50;;;7.00;99.90;;;;;;5056221;28;20163;-88
2022/01/22 01:41:36;;;;;;;12.93;7.63;;;7.10;99.90;;;;;;5056372;28;20183;-88
2022/01/22 01:44:02;;;;;;;13.18;6.60;;;7.20;99.90;;;;;;5055021;28;20167;-82
2022/01/22 01:46:30;;;;;;;11.98;6.72;;;7.20;99.90;;;;;;5056312;28;20193;-89
2022/01/22 01:48:57;;;;;;;9.27;7.30;;;7.20;99.90;;;;;;5054542;28;20175;-90
2022/01/22 01:51:25;;;;;;;8.80;7.57;;;7.10;99.90;;;;;;5055849;28;20179;-89
2022/01/22 01:54:00;;;;;;;8.05;6.82;;;7.10;99.90;;;;;;5056476;28;20198;-84
2022/01/22 01:59:21;;;;;;;7.75;7.05;;;7.20;99.90;;;;;;5055180;28;20201;-78
2022/01/22 02:01:47;;;;;;;15.88;7.60;;;7.20;99.90;;;;;;5056183;28;20183;-92
2022/01/22 02:04:14;;;;;;;18.38;7.70;;;7.40;99.90;;;;;;5055641;28;20194;-91
2022/01/22 02:06:40;;;;;;;9.55;7.30;;;7.60;99.90;;;;;;5055366;28;20163;-79
2022/01/22 02:09:08;;;;;;;10.20;7.88;;;7.40;99.90;;;;;;5053973;28;20229;-79
2022/01/22 02:11:35;;;;;;;13.65;7.85;;;7.40;99.90;;;;;;5055907;28;20197;-79
2022/01/22 02:24:53;;;;;;;14.00;7.75;;;7.10;99.90;;;;;;5055804;28;20178;-83
2022/01/22 02:27:20;;;;;;;14.63;9.18;;;7.40;99.90;;;;;;5055211;28;20211;-79
2022/01/22 02:29:45;;;;;;;16.63;8.02;;;7.50;99.90;;;;;;5054703;28;20164;-78
2022/01/22 02:35:19;;;;;;;9.30;8.05;;;7.50;99.90;;;;;;5055512;28;20270;-89
2022/01/22 02:37:52;;;;;;;18.08;7.70;;;7.50;99.90;;;;;;5055552;28;20273;-88
2022/01/22 02:40:25;;;;;;;8.15;7.32;;;7.40;99.90;;;;;;5055619;28;20232;-86
2022/01/22 02:42:51;;;;;;;11.27;7.28;;;7.30;99.90;;;;;;5055148;28;20559;-79
2022/01/22 02:45:20;;;;;;;9.30;7.80;;;7.30;99.90;;;;;;5055269;28;20257;-92
2022/01/22 02:47:46;;;;;;;15.30;7.95;;;7.30;99.90;;;;;;5055765;28;20170;-86
2022/01/22 02:50:12;;;;;;;21.67;8.30;;;7.20;99.90;;;;;;5055468;28;20550;-81
2022/01/22 02:52:38;;;;;;;8.80;7.93;;;7.40;99.90;;;;;;5055085;28;20810;-90
2022/01/22 02:55:07;;;;;;;11.55;9.02;;;7.50;99.90;;;;;;5055121;28;20262;-91
2022/01/22 02:57:34;;;;;;;10.63;8.63;;;7.40;99.90;;;;;;5055318;28;20157;-91
2022/01/22 03:00:00;;;;;;;8.40;7.60;;;7.40;99.90;;;;;;5054758;28;20198;-88
2022/01/22 03:02:27;;;;;;;18.08;8.98;;;7.50;99.90;;;;;;5054595;28;20183;-86
2022/01/22 03:04:52;;;;;;;13.80;8.88;;;7.40;99.90;;;;;;5054860;28;20167;-82
2022/01/22 03:07:18;;;;;;;9.75;8.75;;;7.40;99.90;;;;;;5055044;28;20170;-90
2022/01/22 03:09:46;;;;;;;12.15;8.73;;;7.40;99.90;;;;;;5054972;28;20616;-87
2022/01/22 03:12:48;;;;;;;9.13;8.10;;;7.30;99.90;;;;;;5054491;28;20632;-91
2022/01/22 03:27:58;;;;;;;15.07;8.88;;;7.90;99.90;;;;;;5055772;28;20201;-83
2022/01/22 03:30:24;;;;;;;20.30;10.20;;;7.60;99.90;;;;;;5057118;28;20167;-81
2022/01/22 03:32:53;;;;;;;13.07;8.77;;;7.50;99.90;;;;;;5056501;28;20205;-90
2022/01/22 03:37:51;;;;;;;12.23;9.27;;;7.50;99.90;;;;;;5054914;28;20179;-91
2022/01/22 03:40:18;;;;;;;16.10;9.57;;;7.40;99.90;;;;;;5054547;28;20225;-88
2022/01/22 03:42:44;;;;;;;11.45;9.85;;;7.40;99.90;;;;;;5052932;28;20163;-85
2022/01/22 03:45:11;;;;;;;18.15;11.10;;;7.30;99.90;;;;;;5054234;28;20167;-90
2022/01/22 03:47:37;;;;;;;15.15;10.93;;;7.40;99.90;;;;;;5054235;28;20165;-86
2022/01/22 03:50:05;;;;;;;13.50;10.18;;;7.50;99.90;;;;;;5054261;28;20171;-91
2022/01/22 03:52:30;;;;;;;15.75;11.40;;;7.50;99.90;;;;;;5054430;28;20198;-79
2022/01/22 03:54:56;;;;;;;18.27;10.70;;;7.50;99.90;;;;;;5054398;28;20262;-88
2022/01/22 03:57:25;;;;;;;13.40;10.52;;;7.60;99.90;;;;;;5054979;28;20167;-78
2022/01/22 03:59:53;;;;;;;13.43;10.82;;;7.70;99.90;;;;;;5064275;28;20209;-88
2022/01/22 04:04:54;;;;;;;17.48;11.70;;;7.40;99.90;;;;;;5063061;28;20178;-91
2022/01/22 04:08:08;;;;;;;13.20;10.82;;;7.40;99.90;;;;;;5058557;28;20174;-88
2022/01/22 04:10:14;;;;;;;15.98;11.27;;;7.50;99.90;;;;;;5054281;28;20187;-77
2022/01/22 04:15:11;;;;;;;16.17;12.15;;;7.40;99.90;;;;;;5058184;28;20177;-82
2022/01/22 04:25:52;;;;;;;17.75;11.90;;;7.50;99.90;;;;;;5066183;28;20231;-92
2022/01/22 04:28:18;;;;;;;19.05;12.40;;;7.60;99.90;;;;;;5060518;28;20190;-90
2022/01/22 04:30:45;;;;;;;23.02;11.88;;;7.70;99.90;;;;;;5060824;28;20270;-80
2022/01/22 04:33:11;;;;;;;18.63;12.45;;;7.80;99.90;;;;;;5062805;28;20178;-79
2022/01/22 04:35:37;;;;;;;17.40;12.38;;;7.70;99.90;;;;;;5060299;28;20258;-89
2022/01/22 04:38:03;;;;;;;19.35;12.85;;;7.80;99.90;;;;;;5058284;28;20550;-90
2022/01/22 04:40:28;;;;;;;23.98;12.95;;;7.70;99.90;;;;;;5057916;28;20214;-79
2022/01/22 04:42:54;;;;;;;14.45;12.27;;;7.70;99.90;;;;;;5058984;28;20190;-88
2022/01/22 04:56:08;;;;;;;21.52;13.50;;;7.70;99.90;;;;;;5060207;28;20242;-92
2022/01/22 04:58:33;;;;;;;17.73;13.10;;;7.80;99.90;;;;;;5059345;28;20182;-86
2022/01/22 05:00:59;;;;;;;18.05;12.63;;;7.90;99.90;;;;;;5058511;28;20555;-92
2022/01/22 05:03:25;;;;;;;25.35;14.68;;;8.10;99.90;;;;;;5059610;28;20164;-85
2022/01/22 05:05:50;;;;;;;16.15;12.18;;;7.80;99.90;;;;;;5066923;28;20174;-80
2022/01/22 05:08:16;;;;;;;24.90;13.95;;;7.80;99.90;;;;;;5070893;28;20186;-84
2022/01/22 05:10:41;;;;;;;23.83;13.85;;;7.90;99.90;;;;;;5072192;28;20609;-78
2022/01/22 05:13:07;;;;;;;18.48;13.45;;;7.90;99.90;;;;;;5072812;28;20203;-89
2022/01/22 05:15:33;;;;;;;16.73;11.90;;;7.70;99.90;;;;;;5072085;28;20171;-86
2022/01/22 05:17:59;;;;;;;29.05;13.88;;;7.70;99.90;;;;;;5072212;28;20197;-81
2022/01/22 05:20:29;;;;;;;19.83;13.00;;;7.70;99.90;;;;;;5071986;28;20163;-79
2022/01/22 05:23:01;;;;;;;26.83;13.70;;;7.60;99.90;;;;;;5070768;28;20241;-81
2022/01/22 05:38:43;;;;;;;25.23;13.98;;;7.50;99.90;;;;;;5056787;28;20272;-92
2022/01/22 05:41:08;;;;;;;23.48;14.38;;;7.50;99.90;;;;;;5056513;28;20179;-88
2022/01/22 05:43:34;;;;;;;27.35;14.15;;;7.50;99.90;;;;;;5056231;28;20673;-87
2022/01/22 05:45:59;;;;;;;21.88;13.75;;;7.60;99.90;;;;;;5055934;28;20248;-79
2022/01/22 05:48:26;;;;;;;25.23;14.00;;;7.60;99.90;;;;;;5056198;28;20167;-83
2022/01/22 05:50:56;;;;;;;22.88;14.90;;;7.50;99.90;;;;;;5056332;28;20557;-91
2022/01/22 06:01:13;;;;;;;26.80;14.88;;;7.70;99.90;;;;;;5055769;28;20193;-86
2022/01/22 06:03:40;;;;;;;19.92;14.27;;;7.70;99.90;;;;;;5056114;28;20191;-89
2022/01/22 06:06:05;;;;;;;23.33;14.57;;;7.60;99.90;;;;;;5055928;28;20187;-91
2022/01/22 06:08:34;;;;;;;21.70;13.73;;;7.50;99.90;;;;;;5055830;28;20178;-88
2022/01/22 06:11:07;;;;;;;27.38;15.35;;;7.50;99.90;;;;;;5055853;28;20180;-80
2022/01/22 06:13:43;;;;;;;26.63;14.85;;;7.50;99.90;;;;;;5055593;28;20542;-90
2022/01/22 06:16:15;;;;;;;21.90;14.63;;;7.80;99.90;;;;;;5055687;28;20166;-91
2022/01/22 06:18:41;;;;;;;23.17;14.38;;;7.90;99.90;;;;;;5055723;28;20174;-92
2022/01/22 06:21:10;;;;;;;23.08;16.17;;;7.90;99.90;;;;;;5055863;28;20203;-88
2022/01/22 06:23:37;;;;;;;24.10;14.48;;;7.90;99.90;;;;;;5055536;28;20179;-83
2022/01/22 06:26:04;;;;;;;27.23;15.43;;;7.80;99.90;;;;;;5056453;28;20200;-91
2022/01/22 06:28:31;;;;;;;23.92;15.18;;;7.80;99.90;;;;;;5055116;28;20281;-92
2022/01/22 06:30:57;;;;;;;32.47;14.85;;;7.90;99.90;;;;;;5055255;28;20206;-89
2022/01/22 06:33:24;;;;;;;26.05;14.77;;;7.90;99.90;;;;;;5056312;28;20669;-81
2022/01/22 06:35:50;;;;;;;29.40;15.13;;;7.80;99.90;;;;;;5052424;28;20172;-80
2022/01/22 06:38:17;;;;;;;23.15;15.85;;;7.90;99.90;;;;;;5055157;28;20175;-89
2022/01/22 06:43:28;;;;;;;23.08;15.57;;;8.10;99.90;;;;;;5056511;28;20189;-82
2022/01/22 06:45:53;;;;;;;27.80;15.57;;;8.10;99.90;;;;;;5056211;28;20171;-88
2022/01/22 06:48:19;;;;;;;25.88;15.13;;;7.80;99.90;;;;;;5055484;28;20224;-84
2022/01/22 06:50:45;;;;;;;27.77;17.00;;;7.80;99.90;;;;;;5057199;28;20217;-91
2022/01/22 06:53:10;;;;;;;33.20;16.88;;;7.80;99.90;;;;;;5057991;28;20247;-78
2022/01/22 06:55:52;;;;;;;21.33;14.80;;;7.90;99.90;;;;;;5057492;28;20155;-84
2022/01/22 06:58:17;;;;;;;27.85;15.18;;;7.80;99.90;;;;;;5057112;28;20174;-77
2022/01/22 07:00:43;;;;;;;26.35;15.98;;;7.70;99.90;;;;;;5055783;28;20183;-90
2022/01/22 07:03:08;;;;;;;24.85;16.23;;;7.70;99.90;;;;;;5055389;28;20167;-89
2022/01/22 07:05:34;;;;;;;31.50;16.42;;;7.60;99.90;;;;;;5073533;28;20163;-84
2022/01/22 07:07:59;;;;;;;29.00;15.70;;;7.60;99.90;;;;;;5056090;28;20175;-87
2022/01/22 07:10:25;;;;;;;25.48;14.93;;;7.60;99.90;;;;;;5057726;28;20167;-88
2022/01/22 07:12:51;;;;;;;40.28;16.95;;;7.50;99.90;;;;;;5057290;28;20237;-84
2022/01/22 07:15:16;;;;;;;39.22;16.52;;;7.70;99.90;;;;;;5056201;28;20541;-87
2022/01/22 07:17:43;;;;;;;28.70;15.57;;;7.80;99.90;;;;;;5064107;28;20175;-85
2022/01/22 07:20:26;;;;;;;24.95;14.50;;;7.70;99.90;;;;;;5059215;28;20164;-82
2022/01/22 07:23:02;;;;;;;22.25;14.95;;;7.70;99.90;;;;;;5057097;28;20209;-84
2022/01/22 07:25:29;;;;;;;31.25;16.95;;;7.80;99.90;;;;;;5055985;28;20167;-84
2022/01/22 07:27:55;;;;;;;30.60;16.92;;;7.80;99.90;;;;;;5060742;28;20179;-81
2022/01/22 07:30:20;;;;;;;33.10;17.02;;;7.70;99.90;;;;;;5056648;28;20163;-84
2022/01/22 07:32:46;;;;;;;26.77;17.15;;;7.70;99.90;;;;;;5055446;28;20201;-87
2022/01/22 07:35:15;;;;;;;29.02;17.55;;;7.80;99.90;;;;;;5055287;28;20185;-84
2022/01/22 07:37:41;;;;;;;34.45;15.85;;;7.70;99.90;;;;;;5068821;28;20202;-86
2022/01/22 07:40:09;;;;;;;28.83;17.35;;;7.70;99.90;;;;;;5053045;28;20171;-85
2022/01/22 07:42:37;;;;;;;24.70;16.42;;;7.70;99.90;;;;;;5070783;28;20282;-90
2022/01/22 07:45:04;;;;;;;29.08;15.45;;;7.80;99.90;;;;;;5052529;28;20167;-87
2022/01/22 07:47:29;;;;;;;25.38;16.77;;;7.80;99.90;;;;;;5052670;28;20205;-78
2022/01/22 07:49:55;;;;;;;28.42;16.92;;;7.80;99.90;;;;;;5053253;28;20616;-83
2022/01/22 07:52:21;;;;;;;30.00;17.23;;;7.80;99.90;;;;;;5051201;28;20238;-76
2022/01/22 07:54:46;;;;;;;22.98;14.82;;;7.80;99.90;;;;;;5053637;28;20178;-78
2022/01/22 07:57:12;;;;;;;29.98;16.40;;;7.60;99.90;;;;;;5053488;28;20170;-80
2022/01/22 07:59:38;;;;;;;24.13;15.70;;;7.70;99.90;;;;;;5069056;28;20258;-86
2022/01/22 08:02:04;;;;;;;24.30;15.20;;;7.70;99.90;;;;;;5053359;28;20191;-78
2022/01/22 08:04:31;;;;;;;24.23;14.90;;;7.80;99.90;;;;;;5054285;28;20258;-89
2022/01/22 08:07:02;;;;;;;25.38;15.10;;;7.80;99.90;;;;;;5054875;28;20666;-87
2022/01/22 08:09:27;;;;;;;22.92;14.77;;;7.90;99.90;;;;;;5053553;28;20179;-91
2022/01/22 08:11:53;;;;;;;31.75;15.05;;;7.70;99.90;;;;;;5054381;28;20191;-88
2022/01/22 08:14:19;;;;;;;26.20;14.90;;;7.80;99.90;;;;;;5056556;28;20265;-78
2022/01/22 08:16:46;;;;;;;24.05;15.35;;;7.90;99.90;;;;;;5055045;28;20191;-86
2022/01/22 08:19:13;;;;;;;27.10;15.23;;;7.90;99.90;;;;;;5054436;28;20167;-79
2022/01/22 08:21:38;;;;;;;25.42;15.95;;;7.90;99.90;;;;;;5064543;28;20289;-88
2022/01/22 08:24:04;;;;;;;29.65;16.67;;;7.80;99.90;;;;;;5061757;28;20168;-87
2022/01/22 08:26:34;;;;;;;20.83;14.38;;;8.10;99.90;;;;;;5063465;28;20167;-89
2022/01/22 08:29:02;;;;;;;27.23;14.55;;;8.10;99.90;;;;;;5061845;28;20519;-81
2022/01/22 08:36:41;;;;;;;22.08;15.25;;;8.20;99.90;;;;;;5054084;28;20257;-89
2022/01/22 08:39:07;;;;;;;32.58;16.60;;;8.20;99.90;;;;;;5069372;28;20179;-87
2022/01/22 08:41:33;;;;;;;31.05;17.33;;;8.30;99.90;;;;;;5053454;28;20175;-84
2022/01/22 08:44:00;;;;;;;25.27;15.98;;;8.30;99.90;;;;;;5054210;28;20229;-82
2022/01/22 08:46:27;;;;;;;31.05;15.52;;;8.30;99.90;;;;;;5053931;28;20163;-80
2022/01/22 08:48:53;;;;;;;32.55;15.65;;;8.20;99.90;;;;;;5053194;28;20167;-81
2022/01/22 08:51:19;;;;;;;27.52;15.10;;;8.20;99.90;;;;;;5053609;28;20678;-89
2022/01/22 08:53:46;;;;;;;24.60;14.40;;;8.20;99.90;;;;;;5054239;28;20207;-86
2022/01/22 08:56:12;;;;;;;24.73;15.85;;;8.00;99.90;;;;;;5054028;28;20171;-88
2022/01/22 08:58:38;;;;;;;28.35;15.23;;;8.00;99.90;;;;;;5054589;28;20216;-83
2022/01/22 09:01:04;;;;;;;28.75;16.38;;;8.20;99.90;;;;;;5057659;28;20543;-85
2022/01/22 09:03:30;;;;;;;25.58;15.57;;;8.40;99.90;;;;;;5057858;28;20168;-90
2022/01/22 09:05:58;;;;;;;30.55;17.30;;;8.50;99.90;;;;;;5058395;28;20167;-91
2022/01/22 09:08:25;;;;;;;31.50;16.15;;;8.50;99.90;;;;;;5058776;28;20576;-90
2022/01/22 09:10:52;;;;;;;21.45;16.15;;;8.50;99.90;;;;;;5060943;28;20220;-82
2022/01/22 09:13:19;;;;;;;26.27;16.70;;;8.50;99.90;;;;;;5058716;28;20290;-85
2022/01/22 09:15:45;;;;;;;32.03;17.88;;;8.50;99.90;;;;;;5057839;28;20206;-87
2022/01/22 09:18:11;;;;;;;21.85;14.60;;;8.50;99.90;;;;;;5059754;28;20174;-93
2022/01/22 09:23:03;;;;;;;31.30;16.15;;;8.40;99.90;;;;;;5063779;28;20247;-85
2022/01/22 09:25:28;;;;;;;29.45;15.73;;;8.30;99.90;;;;;;5059423;28;20218;-95
2022/01/22 09:27:54;;;;;;;23.90;15.70;;;8.30;99.90;;;;;;5058976;28;20209;-90
2022/01/22 09:30:19;;;;;;;28.30;15.82;;;8.30;99.90;;;;;;5060197;28;20174;-90
2022/01/22 09:32:45;;;;;;;24.92;15.85;;;8.40;99.90;;;;;;5069250;28;20235;-95
2022/01/22 09:35:11;;;;;;;23.13;14.73;;;8.30;99.90;;;;;;5060622;28;20183;-88
2022/01/22 09:37:37;;;;;;;24.63;15.23;;;8.30;99.90;;;;;;5058083;28;20170;-91
2022/01/22 09:40:03;;;;;;;29.88;15.93;;;8.30;99.90;;;;;;5059483;28;20254;-93
2022/01/22 09:42:28;;;;;;;25.23;14.77;;;8.50;99.90;;;;;;5062653;28;20235;-87
2022/01/22 09:44:54;;;;;;;23.55;14.80;;;8.40;99.90;;;;;;5071504;28;20163;-90
2022/01/22 09:47:21;;;;;;;25.80;15.70;;;8.50;99.90;;;;;;5057242;28;20166;-89
2022/01/22 09:49:47;;;;;;;28.65;15.43;;;8.50;99.90;;;;;;5059810;28;20175;-90
2022/01/22 09:52:13;;;;;;;23.38;14.77;;;8.60;99.90;;;;;;5067874;28;20183;-83
2022/01/22 09:54:39;;;;;;;26.88;16.73;;;8.60;99.90;;;;;;5070527;28;20198;-78
2022/01/22 09:57:06;;;;;;;34.35;16.83;;;8.60;99.90;;;;;;5069016;28;20215;-77
2022/01/22 09:59:32;;;;;;;34.25;16.00;;;8.70;99.90;;;;;;5068101;28;20207;-78
2022/01/22 10:02:18;;;;;;;38.35;17.60;;;8.70;99.90;;;;;;5062609;28;20237;-90
2022/01/22 10:04:48;;;;;;;40.35;16.40;;;8.60;99.90;;;;;;5058913;28;20252;-83
2022/01/22 10:07:16;;;;;;;30.33;16.65;;;8.60;99.90;;;;;;5045328;28;20175;-86
2022/01/22 10:09:58;;;;;;;31.30;16.63;;;8.60;99.90;;;;;;5035321;28;20160;-91
2022/01/22 10:12:26;;;;;;;32.22;15.93;;;8.80;99.90;;;;;;5036498;28;20223;-85
2022/01/22 10:15:11;;;;;;;25.40;16.85;;;8.60;99.90;;;;;;5036983;28;20202;-85
2022/01/22 10:17:54;;;;;;;32.38;18.27;;;8.70;99.90;;;;;;5037321;28;20628;-85
2022/01/22 10:20:32;;;;;;;38.00;16.02;;;8.80;99.90;;;;;;5036505;28;20172;-84
2022/01/22 10:23:03;;;;;;;28.13;15.98;;;8.70;99.90;;;;;;5035990;28;20183;-90
2022/01/22 10:25:37;;;;;;;30.30;16.17;;;8.70;99.90;;;;;;5035959;28;20218;-90
2022/01/22 10:28:15;;;;;;;22.63;16.00;;;8.70;99.90;;;;;;5036600;28;20197;-91
2022/01/22 10:30:44;;;;;;;30.17;17.33;;;8.90;99.90;;;;;;5036479;28;20241;-82
2022/01/22 10:35:50;;;;;;;22.67;16.60;;;8.90;99.90;;;;;;5037176;28;20263;-94
2022/01/22 10:38:18;;;;;;;28.55;15.75;;;9.10;99.90;;;;;;5037608;28;20175;-79
2022/01/22 10:40:45;;;;;;;26.05;16.10;;;9.00;99.90;;;;;;5036398;28;20271;-87
2022/01/22 10:43:32;;;;;;;35.67;17.13;;;8.90;99.90;;;;;;5036324;28;20164;-92
2022/01/22 10:48:54;;;;;;;33.67;18.23;;;8.60;99.90;;;;;;5037217;28;20179;-93
2022/01/22 10:51:20;;;;;;;23.27;16.38;;;8.70;99.90;;;;;;5036141;28;20265;-84
2022/01/22 10:54:09;;;;;;;27.83;16.40;;;8.70;99.90;;;;;;5036072;28;20675;-81
2022/01/22 10:56:36;;;;;;;28.13;16.17;;;9.00;99.90;;;;;;5036083;28;20171;-81
2022/01/22 10:59:07;;;;;;;26.77;16.75;;;9.00;99.90;;;;;;5033890;28;20178;-84
2022/01/22 11:01:38;;;;;;;23.58;16.23;;;9.10;99.90;;;;;;5035707;28;20188;-84
2022/01/22 11:04:11;;;;;;;25.77;15.20;;;8.90;99.90;;;;;;5034684;28;20243;-80
2022/01/22 11:06:38;;;;;;;27.58;16.58;;;9.00;99.90;;;;;;5035427;28;20569;-83
2022/01/22 11:09:05;;;;;;;27.17;15.85;;;8.90;99.90;;;;;;5034665;28;20222;-88
2022/01/22 11:11:36;;;;;;;25.58;17.10;;;8.80;99.90;;;;;;5034736;28;20191;-82
2022/01/22 11:14:06;;;;;;;25.40;16.05;;;8.80;99.90;;;;;;5035564;28;20210;-89
2022/01/22 11:16:32;;;;;;;26.42;15.50;;;8.80;99.90;;;;;;5035659;28;20168;-88
2022/01/22 11:18:59;;;;;;;25.17;14.50;;;8.90;99.90;;;;;;5034339;28;20179;-89
2022/01/22 11:21:25;;;;;;;22.58;15.75;;;9.10;99.90;;;;;;5033899;28;20211;-87
2022/01/22 11:23:51;;;;;;;31.92;15.13;;;9.10;99.90;;;;;;5036262;28;20168;-92
2022/01/22 11:26:18;;;;;;;23.67;17.13;;;8.90;99.90;;;;;;5035352;28;20164;-89
2022/01/22 11:28:45;;;;;;;23.10;15.80;;;9.00;99.90;;;;;;5035484;28;20175;-86
2022/01/22 11:31:13;;;;;;;35.22;15.98;;;9.00;99.90;;;;;;5035558;28;20206;-91
2022/01/22 11:33:40;;;;;;;30.52;17.15;;;9.10;99.90;;;;;;5035865;28;20206;-95
2022/01/22 11:36:15;;;;;;;22.35;16.10;;;9.00;99.90;;;;;;5034219;28;20230;-82
2022/01/22 11:38:48;;;;;;;29.88;17.00;;;8.80;99.90;;;;;;5035278;28;20250;-94
2022/01/22 11:41:19;;;;;;;33.40;16.40;;;8.80;99.90;;;;;;5035997;28;20187;-89
2022/01/22 11:46:42;;;;;;;30.42;17.65;;;8.60;99.90;;;;;;5035258;28;20195;-92
2022/01/22 11:49:28;;;;;;;26.58;16.63;;;8.80;99.90;;;;;;5035709;28;20176;-94
2022/01/22 11:52:14;;;;;;;28.17;17.98;;;8.90;99.90;;;;;;5034977;28;20179;-91
2022/01/22 11:54:53;;;;;;;29.70;16.52;;;9.00;99.90;;;;;;5034543;28;20312;-91
2022/01/22 11:57:19;;;;;;;29.98;16.45;;;8.90;99.90;;;;;;5034083;28;20171;-87
2022/01/22 11:59:46;;;;;;;26.13;16.60;;;8.90;99.90;;;;;;5034681;28;20168;-86
2022/01/22 12:02:16;;;;;;;27.40;18.48;;;8.80;99.90;;;;;;5032858;28;20199;-81
2022/01/22 12:04:42;;;;;;;24.77;16.38;;;8.80;99.90;;;;;;5034629;28;20644;-88
2022/01/22 12:07:20;;;;;;;28.98;16.83;;;8.70;99.90;;;;;;5036405;28;20172;-91
2022/01/22 12:10:18;;;;;;;26.75;17.20;;;8.80;99.90;;;;;;5034364;28;20275;-85
2022/01/22 12:15:31;;;;;;;26.17;15.95;;;8.80;99.90;;;;;;5035605;28;20254;-78
2022/01/22 12:18:16;;;;;;;26.02;15.90;;;8.80;99.90;;;;;;5042938;28;20168;-83
2022/01/22 12:23:15;;;;;;;32.75;17.23;;;8.90;99.90;;;;;;5032485;28;20168;-77
2022/01/22 12:25:41;;;;;;;25.42;17.45;;;8.90;99.90;;;;;;5034430;28;20176;-88
2022/01/22 12:28:12;;;;;;;25.48;16.55;;;8.90;99.90;;;;;;5034335;28;20625;-84
2022/01/22 12:30:49;;;;;;;27.88;16.33;;;8.90;99.90;;;;;;5033309;28;20210;-80
2022/01/22 12:33:30;;;;;;;25.08;16.55;;;8.90;99.90;;;;;;5034468;28;20203;-86
2022/01/22 12:36:07;;;;;;;22.73;16.45;;;8.80;99.90;;;;;;5036722;28;20179;-86
2022/01/22 12:41:34;;;;;;;29.27;19.35;;;8.90;99.90;;;;;;5036841;28;20207;-85
2022/01/22 12:44:07;;;;;;;29.52;18.38;;;8.90;99.90;;;;;;5037102;28;20172;-89
2022/01/22 12:46:34;;;;;;;27.33;17.67;;;8.90;99.90;;;;;;5038023;28;20171;-89
2022/01/22 12:49:02;;;;;;;28.55;18.08;;;8.80;99.90;;;;;;5036456;28;20577;-88
2022/01/22 12:51:27;;;;;;;32.20;19.40;;;8.90;99.90;;;;;;5036282;28;20187;-82
2022/01/22 12:53:53;;;;;;;28.83;17.67;;;9.00;99.90;;;;;;5035817;28;20283;-79
2022/01/22 12:59:10;;;;;;;29.45;18.63;;;9.00;99.90;;;;;;5037772;28;20180;-83
2022/01/22 13:01:38;;;;;;;32.38;18.33;;;8.90;99.90;;;;;;5035713;28;20179;-87
2022/01/22 13:04:07;;;;;;;31.35;19.05;;;8.90;99.90;;;;;;5036119;28;20171;-85
2022/01/22 13:06:45;;;;;;;29.45;17.65;;;9.00;99.90;;;;;;5038634;28;20322;-88
2022/01/22 13:09:12;;;;;;;29.05;17.25;;;9.10;99.90;;;;;;5036121;28;20182;-90
2022/01/22 13:11:46;;;;;;;28.27;18.25;;;9.00;99.90;;;;;;5036334;28;20218;-88
2022/01/22 13:14:17;;;;;;;27.40;19.25;;;8.80;99.90;;;;;;5036086;28;20268;-82
2022/01/22 13:16:48;;;;;;;29.05;19.17;;;8.90;99.90;;;;;;5036057;28;20160;-87
2022/01/22 13:19:15;;;;;;;23.80;17.80;;;8.90;99.90;;;;;;5036234;28;20171;-87
2022/01/22 13:21:49;;;;;;;29.15;18.10;;;8.80;99.90;;;;;;5035735;28;20207;-89
2022/01/22 13:24:15;;;;;;;25.33;17.80;;;8.80;99.90;;;;;;5051768;28;20508;-87
2022/01/22 13:26:51;;;;;;;27.80;17.30;;;9.00;99.90;;;;;;5035897;28;20175;-87
2022/01/22 13:29:20;;;;;;;33.25;18.02;;;9.00;99.90;;;;;;5035790;28;20202;-86
2022/01/22 13:32:02;;;;;;;33.28;17.55;;;8.80;99.90;;;;;;5034418;28;20199;-89
2022/01/22 13:34:41;;;;;;;32.35;20.48;;;8.80;99.90;;;;;;5035673;28;20699;-82
2022/01/22 13:47:42;;;;;;;30.52;19.73;;;8.60;99.90;;;;;;5034796;28;20673;-84
2022/01/22 13:48:07;;;;;;;29.48;18.25;;;8.60;99.90;;;;;;5035479;28;20189;-85
2022/01/22 13:50:33;;;;;;;28.25;18.10;;;8.50;99.90;;;;;;5037317;28;20259;-85
2022/01/22 13:52:59;;;;;;;39.95;21.27;;;8.60;99.90;;;;;;5036589;28;20204;-85
2022/01/22 13:55:26;;;;;;;30.63;19.02;;;8.40;99.90;;;;;;5035993;28;20176;-88
2022/01/22 13:57:52;;;;;;;32.83;18.13;;;8.20;99.90;;;;;;5035366;28;20156;-87
2022/01/22 14:00:20;;;;;;;29.92;18.83;;;8.10;99.90;;;;;;5035279;28;20635;-90
2022/01/22 14:03:19;;;;;;;26.38;18.58;;;8.20;99.90;;;;;;5035701;28;20198;-88
2022/01/22 14:05:53;;;;;;;28.77;17.98;;;8.30;99.90;;;;;;5035806;28;20176;-88
2022/01/22 14:08:33;;;;;;;28.00;19.02;;;8.40;99.90;;;;;;5034948;28;20254;-87
2022/01/22 14:11:05;;;;;;;30.65;18.80;;;8.50;99.90;;;;;;5035140;28;20186;-85
2022/01/22 14:13:31;;;;;;;33.50;16.90;;;8.50;99.90;;;;;;5034835;28;20275;-89
2022/01/22 14:16:09;;;;;;;28.92;17.92;;;8.50;99.90;;;;;;5035273;28;20164;-82
2022/01/22 14:18:43;;;;;;;29.20;18.55;;;8.30;99.90;;;;;;5035086;28;20171;-83
2022/01/22 14:21:10;;;;;;;24.88;18.13;;;8.20;99.90;;;;;;5034190;28;20310;-87
2022/01/22 14:23:38;;;;;;;28.67;18.23;;;8.20;99.90;;;;;;5034609;28;20171;-86
2022/01/22 14:26:25;;;;;;;33.47;20.75;;;8.20;99.90;;;;;;5034635;28;20200;-84
2022/01/22 14:28:52;;;;;;;34.58;20.83;;;8.20;99.90;;;;;;5034869;28;20168;-86
2022/01/22 14:31:28;;;;;;;35.78;21.17;;;8.00;99.90;;;;;;5035309;28;20227;-82
2022/01/22 14:33:56;;;;;;;23.98;16.05;;;7.90;99.90;;;;;;5035179;28;20203;-86
2022/01/22 14:36:29;;;;;;;38.60;19.10;;;7.90;99.90;;;;;;5050852;28;20167;-83
2022/01/22 14:39:29;;;;;;;31.27;17.80;;;7.80;99.90;;;;;;5034884;28;20261;-85
2022/01/22 14:44:50;;;;;;;28.15;17.42;;;7.80;99.90;;;;;;5035689;28;20731;-87
2022/01/22 14:47:21;;;;;;;20.63;15.63;;;8.10;99.90;;;;;;5035303;28;20531;-86
2022/01/22 14:49:51;;;;;;;33.75;17.27;;;8.10;99.90;;;;;;5034421;28;20164;-88
2022/01/22 14:52:27;;;;;;;27.92;16.38;;;8.10;99.90;;;;;;5034924;28;20188;-89
2022/01/22 14:54:57;;;;;;;28.95;19.05;;;8.10;99.90;;;;;;5034709;28;20344;-86
2022/01/22 14:57:25;;;;;;;40.97;24.42;;;8.20;99.90;;;;;;5033150;28;20168;-89
2022/01/22 14:59:51;;;;;;;28.10;18.80;;;8.20;99.90;;;;;;5033928;28;20293;-89
2022/01/22 15:02:17;;;;;;;31.67;18.15;;;8.40;99.90;;;;;;5034271;28;20263;-80
2022/01/22 15:04:43;;;;;;;26.05;17.98;;;8.30;99.90;;;;;;5033880;28;20175;-84